RPUG weather

Lingayen Airport
Pangasinan Province, Philippines

Public forecast

Using degrees Celsius for public forecast. Weather courtesy of forecast.io.

METAR (pilot weather report)

Closest report is Diosdado Macapagal International Airport, 54.2 nm (100.4 km) SSE. Retrieved 2019/06/19 08:00 UTC (44 minutes ago):

RPLC 190800Z 02004KT 9999 SCT020 BKN300 34/24 Q1007 NOSIG RMK A2974

TAF (pilot weather forecast)

Closest forecast is Diosdado Macapagal International Airport, 54.2 nm (100.4 km) SSE. Retrieved 2019/06/19 06:00 UTC (3 hours ago):

TAF RPLC 190500Z 1906/2012 23006KT 9999 FEW020 SCT300 TX34/1906Z TN26/1922Z TEMPO 1906/1912 17012KT 8000 -TSRA FEW015CB SCT020 BKN100